createdAt,value
2022-08-21T00:00:32.653Z,13.80
2022-08-21T00:03:38.946Z,13.80
2022-08-21T00:06:45.906Z,13.70
2022-08-21T00:09:52.701Z,13.70
2022-08-21T00:13:01.801Z,13.70
2022-08-21T00:16:08.589Z,13.60
2022-08-21T00:19:15.140Z,13.50
2022-08-21T00:22:21.742Z,13.40
2022-08-21T00:25:29.337Z,13.30
2022-08-21T00:28:37.841Z,13.20
2022-08-21T00:31:45.363Z,13.20
2022-08-21T00:34:52.529Z,13.20
2022-08-21T00:38:00.125Z,13.20
2022-08-21T00:41:36.391Z,13.20
2022-08-21T00:44:37.907Z,13.20
2022-08-21T00:47:44.690Z,13.10
2022-08-21T00:50:57.469Z,13.10
2022-08-21T00:54:16.932Z,13.10
2022-08-21T00:57:31.470Z,13.00
2022-08-21T01:00:44.422Z,13.00
2022-08-21T01:03:51.522Z,12.90
2022-08-21T01:06:58.185Z,12.90
2022-08-21T01:10:06.086Z,12.80
2022-08-21T01:13:17.158Z,12.80
2022-08-21T01:16:25.385Z,12.80
2022-08-21T01:19:32.076Z,12.80
2022-08-21T01:22:40.407Z,12.90
2022-08-21T01:25:47.157Z,12.90
2022-08-21T01:29:01.330Z,12.90
2022-08-21T01:32:13.586Z,12.90
2022-08-21T01:35:21.994Z,12.90
2022-08-21T01:38:29.752Z,12.80
2022-08-21T01:41:37.648Z,12.80
2022-08-21T01:44:44.659Z,12.80
2022-08-21T01:47:51.417Z,12.80
2022-08-21T01:50:57.969Z,12.70
2022-08-21T01:54:06.171Z,12.60
2022-08-21T01:57:14.148Z,12.60
2022-08-21T02:00:24.698Z,12.60
2022-08-21T02:03:36.101Z,12.60
2022-08-21T02:06:43.042Z,12.50
2022-08-21T02:09:51.194Z,12.50
2022-08-21T02:12:59.931Z,12.40
2022-08-21T02:16:07.766Z,12.40
2022-08-21T02:19:17.141Z,12.30
2022-08-21T02:22:23.784Z,12.30
2022-08-21T02:25:32.328Z,12.30
2022-08-21T02:28:40.262Z,12.30
2022-08-21T02:31:46.820Z,12.30
2022-08-21T02:34:53.301Z,12.30
2022-08-21T02:38:07.451Z,12.30
2022-08-21T02:41:23.271Z,12.30
2022-08-21T02:44:34.363Z,12.30
2022-08-21T02:47:41.537Z,12.30
2022-08-21T02:50:50.958Z,12.30
2022-08-21T02:53:57.571Z,12.30
2022-08-21T02:57:05.587Z,12.30
2022-08-21T03:00:14.334Z,12.30
2022-08-21T03:03:22.044Z,12.30
2022-08-21T03:06:29.755Z,12.30
2022-08-21T03:09:36.207Z,12.30
2022-08-21T03:12:44.660Z,12.30
2022-08-21T03:15:51.847Z,12.30
2022-08-21T03:18:58.588Z,12.30
2022-08-21T03:22:05.003Z,12.30
2022-08-21T03:25:12.548Z,12.30
2022-08-21T03:28:25.856Z,12.30
2022-08-21T03:31:32.489Z,12.30
2022-08-21T03:34:39.448Z,12.30
2022-08-21T03:37:46.582Z,12.30
2022-08-21T03:40:52.734Z,12.30
2022-08-21T03:44:00.817Z,12.20
2022-08-21T03:47:07.691Z,12.20
2022-08-21T03:50:14.256Z,12.30
2022-08-21T03:53:20.604Z,12.30
2022-08-21T03:56:27.107Z,12.40
2022-08-21T03:59:34.973Z,12.40
2022-08-21T04:02:41.587Z,12.40
2022-08-21T04:05:48.674Z,12.40
2022-08-21T04:08:55.474Z,12.50
2022-08-21T04:12:04.097Z,12.50
2022-08-21T04:15:13.584Z,12.50
2022-08-21T04:18:20.452Z,12.50
2022-08-21T04:21:26.808Z,12.50
2022-08-21T04:24:34.171Z,12.50
2022-08-21T04:27:41.283Z,12.40
2022-08-21T04:30:49.618Z,12.40
2022-08-21T04:33:57.348Z,12.40
2022-08-21T04:37:03.604Z,12.30
2022-08-21T04:40:13.265Z,12.40
2022-08-21T04:43:20.494Z,12.40
2022-08-21T04:46:28.634Z,12.40
2022-08-21T04:49:35.598Z,12.40
2022-08-21T04:52:41.612Z,12.40
2022-08-21T04:55:49.234Z,12.40
2022-08-21T04:58:58.137Z,12.40
2022-08-21T05:02:08.826Z,12.40
2022-08-21T05:05:15.430Z,12.40
2022-08-21T05:08:26.401Z,12.50
2022-08-21T05:11:33.681Z,12.50
2022-08-21T05:14:40.580Z,12.50
2022-08-21T05:17:53.766Z,12.60
2022-08-21T05:21:07.876Z,12.70
2022-08-21T05:24:14.327Z,12.80
2022-08-21T05:27:20.569Z,12.90
2022-08-21T05:30:27.416Z,13.00
2022-08-21T05:33:35.354Z,13.10
2022-08-21T05:36:42.372Z,13.20
2022-08-21T05:40:05.410Z,13.30
2022-08-21T05:43:16.073Z,13.50
2022-08-21T05:46:22.670Z,13.60
2022-08-21T05:49:30.303Z,13.80
2022-08-21T05:52:36.527Z,13.90
2022-08-21T05:55:46.680Z,14.10
2022-08-21T05:58:53.502Z,14.20
2022-08-21T06:02:04.976Z,14.40
2022-08-21T06:05:13.438Z,14.50
2022-08-21T06:08:23.846Z,14.70
2022-08-21T06:11:30.170Z,14.80
2022-08-21T06:14:37.895Z,15.00
2022-08-21T06:17:43.992Z,15.20
2022-08-21T06:20:52.031Z,15.40
2022-08-21T06:23:59.077Z,15.60
2022-08-21T06:27:08.497Z,15.80
2022-08-21T06:30:16.291Z,16.10
2022-08-21T06:33:22.851Z,16.30
2022-08-21T06:36:30.721Z,16.60
2022-08-21T06:39:37.972Z,16.80
2022-08-21T06:42:46.201Z,17.00
2022-08-21T06:45:54.361Z,17.20
2022-08-21T06:49:01.047Z,17.40
2022-08-21T06:52:13.613Z,17.60
2022-08-21T06:55:22.400Z,17.70
2022-08-21T06:58:29.908Z,17.60
2022-08-21T07:01:36.364Z,17.60
2022-08-21T07:04:42.562Z,17.70
2022-08-21T07:07:50.307Z,17.70
2022-08-21T07:10:59.944Z,17.90
2022-08-21T07:14:06.967Z,18.20
2022-08-21T07:17:13.498Z,18.40
2022-08-21T07:20:20.067Z,18.60
2022-08-21T07:23:32.815Z,18.80
2022-08-21T07:26:39.934Z,19.10
2022-08-21T07:29:46.752Z,19.20
2022-08-21T07:32:53.150Z,19.30
2022-08-21T07:36:00.262Z,19.30
2022-08-21T07:39:08.960Z,19.20
2022-08-21T07:42:15.503Z,19.20
2022-08-21T07:45:25.236Z,19.20
2022-08-21T07:48:31.475Z,19.30
2022-08-21T07:51:37.647Z,19.50
2022-08-21T07:54:45.351Z,19.80
2022-08-21T07:57:52.329Z,20.10
2022-08-21T08:00:58.704Z,20.30
2022-08-21T08:04:05.681Z,20.60
2022-08-21T08:07:12.265Z,20.90
2022-08-21T08:10:21.269Z,21.20
2022-08-21T08:13:27.973Z,21.70
2022-08-21T08:16:34.282Z,21.90
2022-08-21T08:19:40.791Z,22.30
2022-08-21T08:22:50.031Z,22.50
2022-08-21T08:25:58.256Z,22.70
2022-08-21T08:29:04.672Z,22.90
2022-08-21T08:32:11.319Z,22.90
2022-08-21T08:35:18.453Z,22.70
2022-08-21T08:38:28.633Z,23.10
2022-08-21T08:41:38.210Z,23.70
2022-08-21T08:44:45.598Z,24.20
2022-08-21T08:47:59.058Z,24.30
2022-08-21T08:51:11.309Z,25.40
2022-08-21T08:54:25.338Z,26.70
2022-08-21T08:57:34.838Z,26.70
2022-08-21T09:00:41.561Z,26.20
2022-08-21T09:03:50.999Z,26.10
2022-08-21T09:07:12.304Z,26.70
2022-08-21T09:10:23.919Z,26.50
2022-08-21T09:13:46.553Z,25.80
2022-08-21T09:17:05.046Z,25.10
2022-08-21T09:20:23.214Z,24.40
2022-08-21T09:23:40.329Z,24.00
2022-08-21T09:26:56.353Z,24.60
2022-08-21T09:30:05.336Z,25.00
2022-08-21T09:33:16.947Z,25.70
2022-08-21T09:36:37.729Z,26.60
2022-08-21T09:39:48.708Z,27.20
2022-08-21T09:43:01.609Z,27.50
2022-08-21T09:46:13.660Z,28.50
2022-08-21T09:49:30.297Z,29.60
2022-08-21T09:52:37.026Z,30.50
2022-08-21T09:56:11.507Z,30.50
2022-08-21T09:59:36.095Z,30.50
2022-08-21T10:02:44.819Z,30.00
2022-08-21T10:05:59.461Z,29.00
2022-08-21T10:09:11.320Z,28.20
2022-08-21T10:12:27.429Z,27.30
2022-08-21T10:15:49.905Z,26.40
2022-08-21T10:19:15.664Z,25.90
2022-08-21T10:22:36.758Z,25.80
2022-08-21T10:25:57.173Z,25.90
2022-08-21T10:29:33.757Z,26.00
2022-08-21T10:32:59.812Z,26.70
2022-08-21T10:36:16.782Z,27.20
2022-08-21T10:39:35.769Z,28.30
2022-08-21T10:42:58.367Z,29.40
2022-08-21T10:46:16.717Z,30.40
2022-08-21T10:49:38.310Z,30.40
2022-08-21T10:53:11.446Z,30.00
2022-08-21T10:56:23.001Z,31.10
2022-08-21T10:59:38.763Z,32.00
2022-08-21T11:02:51.611Z,32.30
2022-08-21T11:06:04.858Z,31.20
2022-08-21T11:09:18.284Z,30.10
2022-08-21T11:12:33.466Z,29.00
2022-08-21T11:15:46.399Z,28.00
2022-08-21T11:19:02.234Z,27.20
2022-08-21T11:22:16.910Z,26.40
2022-08-21T11:25:36.532Z,25.70
2022-08-21T11:28:50.850Z,25.10
2022-08-21T11:32:16.877Z,24.70
2022-08-21T11:35:34.970Z,24.50
2022-08-21T11:38:44.465Z,24.50
2022-08-21T11:42:45.669Z,24.70
2022-08-21T11:45:56.518Z,25.00
2022-08-21T11:49:20.062Z,25.10
2022-08-21T11:52:34.022Z,25.20
2022-08-21T11:55:46.101Z,25.20
2022-08-21T11:58:59.531Z,25.00
2022-08-21T12:02:12.883Z,24.80
2022-08-21T12:05:32.498Z,24.70
2022-08-21T12:08:42.787Z,24.60
2022-08-21T12:11:52.923Z,24.80
2022-08-21T12:15:30.988Z,25.10
2022-08-21T12:18:38.970Z,25.60
2022-08-21T12:21:54.119Z,26.10
2022-08-21T12:25:10.007Z,26.40
2022-08-21T12:28:24.350Z,26.30
2022-08-21T12:31:32.319Z,26.10
2022-08-21T12:34:42.393Z,26.00
2022-08-21T12:37:54.598Z,25.60
2022-08-21T12:41:06.430Z,25.40
2022-08-21T12:44:17.697Z,25.10
2022-08-21T12:47:33.786Z,24.90
2022-08-21T12:50:49.012Z,24.60
2022-08-21T12:53:58.312Z,24.30
2022-08-21T12:57:08.578Z,24.20
2022-08-21T13:00:25.871Z,24.10
2022-08-21T13:03:37.781Z,24.10
2022-08-21T13:06:47.412Z,24.20
2022-08-21T13:09:59.114Z,24.30
2022-08-21T13:13:12.634Z,24.50
2022-08-21T13:16:25.269Z,24.70
2022-08-21T13:19:34.813Z,24.70
2022-08-21T13:22:45.643Z,24.80
2022-08-21T13:25:52.538Z,24.80
2022-08-21T13:29:12.097Z,24.80
2022-08-21T13:32:25.537Z,24.80
2022-08-21T13:35:47.104Z,24.80
2022-08-21T13:38:54.545Z,24.70
2022-08-21T13:42:03.851Z,24.70
2022-08-21T13:45:21.146Z,24.60
2022-08-21T13:48:31.189Z,24.50
2022-08-21T13:51:39.488Z,24.40
2022-08-21T13:54:46.488Z,24.40
2022-08-21T13:58:02.646Z,24.40
2022-08-21T14:01:20.756Z,24.60
2022-08-21T14:04:34.994Z,24.90
2022-08-21T14:07:44.420Z,25.20
2022-08-21T14:10:54.797Z,25.30
2022-08-21T14:14:09.381Z,25.50
2022-08-21T14:17:32.784Z,25.60
2022-08-21T14:20:40.705Z,25.90
2022-08-21T14:23:48.619Z,26.30
2022-08-21T14:26:57.549Z,26.80
2022-08-21T14:30:15.515Z,27.50
2022-08-21T14:33:29.154Z,27.70
2022-08-21T14:36:35.631Z,27.90
2022-08-21T14:39:45.257Z,27.90
2022-08-21T14:42:53.091Z,28.00
2022-08-21T14:45:59.524Z,28.60
2022-08-21T14:49:06.630Z,29.20
2022-08-21T14:52:12.946Z,29.70
2022-08-21T14:55:21.245Z,29.60
2022-08-21T14:58:27.985Z,29.20
2022-08-21T15:01:38.299Z,28.40
2022-08-21T15:04:44.949Z,27.80
2022-08-21T15:07:51.369Z,27.50
2022-08-21T15:11:11.482Z,27.50
2022-08-21T15:14:23.701Z,27.70
2022-08-21T15:17:30.491Z,28.10
2022-08-21T15:20:37.561Z,28.30
2022-08-21T15:23:44.095Z,28.40
2022-08-21T15:26:53.497Z,28.40
2022-08-21T15:30:00.553Z,28.40
2022-08-21T15:33:08.305Z,28.10
2022-08-21T15:36:15.145Z,27.60
2022-08-21T15:39:21.626Z,27.00
2022-08-21T15:42:32.931Z,26.40
2022-08-21T15:45:39.816Z,26.00
2022-08-21T15:48:47.362Z,25.60
2022-08-21T15:51:54.305Z,25.30
2022-08-21T15:55:01.322Z,25.10
2022-08-21T15:58:09.670Z,25.00
2022-08-21T16:01:16.099Z,24.80
2022-08-21T16:04:25.688Z,24.80
2022-08-21T16:07:32.230Z,24.80
2022-08-21T16:10:39.633Z,24.80
2022-08-21T16:13:51.102Z,24.80
2022-08-21T16:17:00.492Z,24.80
2022-08-21T16:20:13.209Z,24.80
2022-08-21T16:23:19.546Z,24.80
2022-08-21T16:26:25.928Z,24.70
2022-08-21T16:29:39.613Z,24.60
2022-08-21T16:32:47.094Z,24.50
2022-08-21T16:35:53.568Z,24.50
2022-08-21T16:39:00.587Z,24.50
2022-08-21T16:42:07.980Z,24.40
2022-08-21T16:45:20.236Z,24.30
2022-08-21T16:48:26.880Z,24.20
2022-08-21T16:51:34.075Z,24.10
2022-08-21T16:54:43.337Z,24.00
2022-08-21T16:57:50.347Z,23.90
2022-08-21T17:00:58.895Z,23.90
2022-08-21T17:04:05.927Z,23.90
2022-08-21T17:07:12.421Z,23.80
2022-08-21T17:10:20.183Z,23.70
2022-08-21T17:13:27.554Z,23.60
2022-08-21T17:16:35.390Z,23.50
2022-08-21T17:19:42.354Z,23.40
2022-08-21T17:22:49.306Z,23.30
2022-08-21T17:25:56.927Z,23.20
2022-08-21T17:29:03.750Z,23.10
2022-08-21T17:32:14.038Z,22.90
2022-08-21T17:35:20.968Z,22.80
2022-08-21T17:38:27.846Z,22.70
2022-08-21T17:41:34.960Z,22.60
2022-08-21T17:44:45.398Z,22.50
2022-08-21T17:47:53.178Z,22.40
2022-08-21T17:50:59.849Z,22.20
2022-08-21T17:54:06.540Z,22.10
2022-08-21T17:57:24.377Z,22.00
2022-08-21T18:00:32.533Z,22.00
2022-08-21T18:03:40.719Z,21.90
2022-08-21T18:06:47.521Z,21.80
2022-08-21T18:09:53.860Z,21.70
2022-08-21T18:13:07.220Z,21.50
2022-08-21T18:16:19.223Z,21.40
2022-08-21T18:19:27.434Z,21.30
2022-08-21T18:22:33.729Z,21.30
2022-08-21T18:25:41.391Z,21.10
2022-08-21T18:28:48.774Z,21.00
2022-08-21T18:31:55.585Z,20.90
2022-08-21T18:35:06.958Z,20.80
2022-08-21T18:38:15.909Z,20.80
2022-08-21T18:41:23.671Z,20.70
2022-08-21T18:44:32.562Z,20.60
2022-08-21T18:47:44.251Z,20.60
2022-08-21T18:50:52.330Z,20.50
2022-08-21T18:53:59.392Z,20.40
2022-08-21T18:57:07.742Z,20.30
2022-08-21T19:00:19.943Z,20.20
2022-08-21T19:03:27.052Z,20.20
2022-08-21T19:06:45.516Z,20.10
2022-08-21T19:10:24.059Z,20.00
2022-08-21T19:13:22.851Z,20.00
2022-08-21T19:16:29.607Z,19.90
2022-08-21T19:19:36.282Z,19.90
2022-08-21T19:22:52.907Z,19.80
2022-08-21T19:26:13.789Z,19.80
2022-08-21T19:29:21.917Z,19.70
2022-08-21T19:32:45.934Z,19.70
2022-08-21T19:35:52.993Z,19.70
2022-08-21T19:39:01.718Z,19.60
2022-08-21T19:42:15.086Z,19.60
2022-08-21T19:45:21.817Z,19.60
2022-08-21T19:48:34.200Z,19.60
2022-08-21T19:51:41.097Z,19.50
2022-08-21T19:54:49.446Z,19.50
2022-08-21T19:57:55.950Z,19.50
2022-08-21T20:01:02.420Z,19.50
2022-08-21T20:04:10.767Z,19.40
2022-08-21T20:07:26.934Z,19.40
2022-08-21T20:10:34.522Z,19.40
2022-08-21T20:13:41.754Z,19.40
2022-08-21T20:16:52.559Z,19.40
2022-08-21T20:19:59.277Z,19.40
2022-08-21T20:26:34.413Z,19.30
2022-08-21T20:29:41.068Z,19.30
2022-08-21T20:32:48.865Z,19.30
2022-08-21T20:35:55.633Z,19.30
2022-08-21T20:39:02.303Z,19.20
2022-08-21T20:42:11.611Z,19.20
2022-08-21T20:45:23.007Z,19.20
2022-08-21T20:48:49.085Z,19.10
2022-08-21T20:51:58.477Z,19.10
2022-08-21T20:55:12.033Z,19.10
2022-08-21T20:58:32.632Z,19.10
2022-08-21T21:01:40.558Z,19.00
2022-08-21T21:04:55.382Z,18.90
2022-08-21T21:08:05.356Z,18.90
2022-08-21T21:11:16.910Z,19.00
2022-08-21T21:14:32.330Z,19.00
2022-08-21T21:17:44.162Z,18.90
2022-08-21T21:20:56.037Z,18.90
2022-08-21T21:24:08.932Z,18.90
2022-08-21T21:27:21.482Z,18.90
2022-08-21T21:30:46.442Z,18.90
2022-08-21T21:33:53.326Z,18.90
2022-08-21T21:37:06.503Z,18.90
2022-08-21T21:40:39.622Z,18.80
2022-08-21T21:44:15.346Z,18.90
2022-08-21T21:47:37.106Z,18.90
2022-08-21T21:50:54.722Z,18.90
2022-08-21T21:54:20.293Z,18.80
2022-08-21T21:57:49.383Z,18.80
2022-08-21T22:01:06.137Z,18.70
2022-08-21T22:04:23.559Z,18.70
2022-08-21T22:07:41.642Z,18.70
2022-08-21T22:10:53.981Z,18.70
2022-08-21T22:14:10.497Z,18.70
2022-08-21T22:17:33.826Z,18.60
2022-08-21T22:20:47.114Z,18.50
2022-08-21T22:24:03.954Z,18.60
2022-08-21T22:30:46.629Z,18.60
2022-08-21T22:34:18.370Z,18.60
2022-08-21T22:37:36.430Z,18.60
2022-08-21T22:40:42.985Z,18.50
2022-08-21T22:43:57.502Z,18.50
2022-08-21T22:47:06.377Z,18.50
2022-08-21T22:50:24.114Z,18.40
2022-08-21T22:53:36.569Z,18.40
2022-08-21T22:56:49.393Z,18.40
2022-08-21T23:00:01.866Z,18.30
2022-08-21T23:03:17.247Z,18.30
2022-08-21T23:06:29.447Z,18.20
2022-08-21T23:09:47.153Z,18.10
2022-08-21T23:13:01.925Z,18.10
2022-08-21T23:16:18.065Z,18.10
2022-08-21T23:19:43.821Z,18.20
2022-08-21T23:23:11.673Z,18.10
2022-08-21T23:26:25.178Z,18.10
2022-08-21T23:29:44.623Z,18.10
2022-08-21T23:33:11.945Z,18.10
2022-08-21T23:36:45.597Z,18.10
2022-08-21T23:40:07.449Z,18.20
2022-08-21T23:43:37.402Z,18.20
2022-08-21T23:47:02.424Z,18.20
2022-08-21T23:50:14.772Z,18.20
2022-08-21T23:53:34.682Z,18.20
2022-08-21T23:57:00.285Z,18.20
